Terminal Aerodrome Forecast
Issued by NWS

Home | Current Version | Previous Version | Text Only | Print | Product List | Glossary On
Versions: 1 2 3 4 5 6 7 8 9 10 11 12 13 14 15 16
000
FTUS44 KMAF 210100 AAA
TAFINK
TAF AMD
KINK 210110Z 2101/2124 16011G22KT P6SM SCT080 SCT250
     FM210200 15010KT P6SM SCT100 BKN200
     FM211500 16011G21KT P6SM SCT080 SCT250=

USA.gov is the U.S. government's official web portal to all federal, state and local government web resources and services.